sensor_id;sensor_type;location;lat;lon;timestamp;temperature;humidity
49184;DHT22;35021;49.214;12.270;2023-04-08T00:00:46;19.60;32.90
49184;DHT22;35021;49.214;12.270;2023-04-08T00:03:12;19.60;32.90
49184;DHT22;35021;49.214;12.270;2023-04-08T00:05:40;19.60;32.90
49184;DHT22;35021;49.214;12.270;2023-04-08T00:08:06;19.60;32.80
49184;DHT22;35021;49.214;12.270;2023-04-08T00:10:34;19.60;32.90
49184;DHT22;35021;49.214;12.270;2023-04-08T00:13:02;19.60;32.90
49184;DHT22;35021;49.214;12.270;2023-04-08T00:15:28;19.60;32.90
49184;DHT22;35021;49.214;12.270;2023-04-08T00:17:55;19.50;32.90
49184;DHT22;35021;49.214;12.270;2023-04-08T00:20:23;19.50;32.80
49184;DHT22;35021;49.214;12.270;2023-04-08T00:22:50;19.50;32.90
49184;DHT22;35021;49.214;12.270;2023-04-08T00:25:16;19.50;32.90
49184;DHT22;35021;49.214;12.270;2023-04-08T00:27:43;19.40;32.90
49184;DHT22;35021;49.214;12.270;2023-04-08T00:30:10;19.40;32.90
49184;DHT22;35021;49.214;12.270;2023-04-08T00:32:37;19.40;32.90
49184;DHT22;35021;49.214;12.270;2023-04-08T00:35:04;19.40;32.90
49184;DHT22;35021;49.214;12.270;2023-04-08T00:37:31;19.40;33.00
49184;DHT22;35021;49.214;12.270;2023-04-08T00:39:58;19.40;32.90
49184;DHT22;35021;49.214;12.270;2023-04-08T00:42:25;19.40;32.90
49184;DHT22;35021;49.214;12.270;2023-04-08T00:44:52;19.40;32.90
49184;DHT22;35021;49.214;12.270;2023-04-08T00:47:19;19.40;32.90
49184;DHT22;35021;49.214;12.270;2023-04-08T00:49:46;19.40;32.90
49184;DHT22;35021;49.214;12.270;2023-04-08T00:52:13;19.40;32.90
49184;DHT22;35021;49.214;12.270;2023-04-08T00:54:40;19.40;32.80
49184;DHT22;35021;49.214;12.270;2023-04-08T00:57:07;19.40;32.80
49184;DHT22;35021;49.214;12.270;2023-04-08T00:59:34;19.40;32.80
49184;DHT22;35021;49.214;12.270;2023-04-08T01:02:34;19.40;32.70
49184;DHT22;35021;49.214;12.270;2023-04-08T01:05:24;19.40;32.70
49184;DHT22;35021;49.214;12.270;2023-04-08T01:07:54;19.40;32.60
49184;DHT22;35021;49.214;12.270;2023-04-08T01:10:29;19.40;32.60
49184;DHT22;35021;49.214;12.270;2023-04-08T01:13:00;19.40;32.60
49184;DHT22;35021;49.214;12.270;2023-04-08T01:15:29;19.40;32.50
49184;DHT22;35021;49.214;12.270;2023-04-08T01:17:58;19.40;32.50
49184;DHT22;35021;49.214;12.270;2023-04-08T01:20:27;19.40;32.50
49184;DHT22;35021;49.214;12.270;2023-04-08T01:23:19;19.40;32.50
49184;DHT22;35021;49.214;12.270;2023-04-08T01:25:58;19.40;32.50
49184;DHT22;35021;49.214;12.270;2023-04-08T01:28:28;19.40;32.40
49184;DHT22;35021;49.214;12.270;2023-04-08T01:30:56;19.40;32.40
49184;DHT22;35021;49.214;12.270;2023-04-08T01:33:26;19.30;32.30
49184;DHT22;35021;49.214;12.270;2023-04-08T01:35:55;19.30;32.30
49184;DHT22;35021;49.214;12.270;2023-04-08T01:38:24;19.30;32.30
49184;DHT22;35021;49.214;12.270;2023-04-08T01:40:52;19.30;32.20
49184;DHT22;35021;49.214;12.270;2023-04-08T01:43:20;19.30;32.20
49184;DHT22;35021;49.214;12.270;2023-04-08T01:45:48;19.30;32.20
49184;DHT22;35021;49.214;12.270;2023-04-08T01:48:16;19.20;32.10
49184;DHT22;35021;49.214;12.270;2023-04-08T01:50:44;19.20;32.20
49184;DHT22;35021;49.214;12.270;2023-04-08T01:53:12;19.30;32.30
49184;DHT22;35021;49.214;12.270;2023-04-08T01:55:41;19.30;32.30
49184;DHT22;35021;49.214;12.270;2023-04-08T01:58:11;19.30;32.30
49184;DHT22;35021;49.214;12.270;2023-04-08T02:00:41;19.30;32.40
49184;DHT22;35021;49.214;12.270;2023-04-08T02:03:11;19.30;32.40
49184;DHT22;35021;49.214;12.270;2023-04-08T02:05:39;19.30;32.50
49184;DHT22;35021;49.214;12.270;2023-04-08T02:08:06;19.30;32.40
49184;DHT22;35021;49.214;12.270;2023-04-08T02:10:33;19.30;32.50
49184;DHT22;35021;49.214;12.270;2023-04-08T02:13:01;19.30;32.50
49184;DHT22;35021;49.214;12.270;2023-04-08T02:15:33;19.30;32.50
49184;DHT22;35021;49.214;12.270;2023-04-08T02:18:12;19.30;32.50
49184;DHT22;35021;49.214;12.270;2023-04-08T02:20:43;19.30;32.40
49184;DHT22;35021;49.214;12.270;2023-04-08T02:23:19;19.30;32.40
49184;DHT22;35021;49.214;12.270;2023-04-08T02:25:48;19.30;32.30
49184;DHT22;35021;49.214;12.270;2023-04-08T02:28:17;19.30;32.30
49184;DHT22;35021;49.214;12.270;2023-04-08T02:30:50;19.30;32.20
49184;DHT22;35021;49.214;12.270;2023-04-08T02:33:19;19.30;32.10
49184;DHT22;35021;49.214;12.270;2023-04-08T02:35:49;19.30;32.00
49184;DHT22;35021;49.214;12.270;2023-04-08T02:38:17;19.30;32.00
49184;DHT22;35021;49.214;12.270;2023-04-08T02:40:43;19.30;32.00
49184;DHT22;35021;49.214;12.270;2023-04-08T02:43:11;19.30;32.00
49184;DHT22;35021;49.214;12.270;2023-04-08T02:45:40;19.30;31.90
49184;DHT22;35021;49.214;12.270;2023-04-08T02:48:07;19.40;32.00
49184;DHT22;35021;49.214;12.270;2023-04-08T02:50:34;19.30;31.90
49184;DHT22;35021;49.214;12.270;2023-04-08T02:53:02;19.30;31.90
49184;DHT22;35021;49.214;12.270;2023-04-08T02:55:28;19.30;31.90
49184;DHT22;35021;49.214;12.270;2023-04-08T02:57:55;19.30;31.90
49184;DHT22;35021;49.214;12.270;2023-04-08T03:00:22;19.30;31.90
49184;DHT22;35021;49.214;12.270;2023-04-08T03:02:49;19.40;31.80
49184;DHT22;35021;49.214;12.270;2023-04-08T03:05:17;19.40;31.80
49184;DHT22;35021;49.214;12.270;2023-04-08T03:07:44;19.40;31.80
49184;DHT22;35021;49.214;12.270;2023-04-08T03:10:11;19.40;31.70
49184;DHT22;35021;49.214;12.270;2023-04-08T03:12:38;19.40;31.70
49184;DHT22;35021;49.214;12.270;2023-04-08T03:15:05;19.40;31.70
49184;DHT22;35021;49.214;12.270;2023-04-08T03:17:32;19.30;31.60
49184;DHT22;35021;49.214;12.270;2023-04-08T03:20:01;19.30;31.60
49184;DHT22;35021;49.214;12.270;2023-04-08T03:22:30;19.30;31.70
49184;DHT22;35021;49.214;12.270;2023-04-08T03:24:57;19.30;31.70
49184;DHT22;35021;49.214;12.270;2023-04-08T03:27:24;19.30;31.70
49184;DHT22;35021;49.214;12.270;2023-04-08T03:29:51;19.30;31.70
49184;DHT22;35021;49.214;12.270;2023-04-08T03:32:19;19.30;31.80
49184;DHT22;35021;49.214;12.270;2023-04-08T03:34:45;19.30;31.70
49184;DHT22;35021;49.214;12.270;2023-04-08T03:37:12;19.30;31.80
49184;DHT22;35021;49.214;12.270;2023-04-08T03:39:39;19.30;31.80
49184;DHT22;35021;49.214;12.270;2023-04-08T03:42:07;19.30;31.80
49184;DHT22;35021;49.214;12.270;2023-04-08T03:44:33;19.30;31.80
49184;DHT22;35021;49.214;12.270;2023-04-08T03:47:00;19.30;31.70
49184;DHT22;35021;49.214;12.270;2023-04-08T03:49:27;19.30;31.60
49184;DHT22;35021;49.214;12.270;2023-04-08T03:51:54;19.40;31.60
49184;DHT22;35021;49.214;12.270;2023-04-08T03:54:21;19.50;31.60
49184;DHT22;35021;49.214;12.270;2023-04-08T03:56:49;19.50;31.50
49184;DHT22;35021;49.214;12.270;2023-04-08T03:59:16;19.60;31.40
49184;DHT22;35021;49.214;12.270;2023-04-08T04:01:43;19.60;31.30
49184;DHT22;35021;49.214;12.270;2023-04-08T04:04:10;19.70;31.20
49184;DHT22;35021;49.214;12.270;2023-04-08T04:06:38;19.80;31.20
49184;DHT22;35021;49.214;12.270;2023-04-08T04:09:04;19.80;31.10
49184;DHT22;35021;49.214;12.270;2023-04-08T04:11:33;19.90;31.10
49184;DHT22;35021;49.214;12.270;2023-04-08T04:14:00;19.90;31.00
49184;DHT22;35021;49.214;12.270;2023-04-08T04:16:27;20.00;31.00
49184;DHT22;35021;49.214;12.270;2023-04-08T04:18:58;20.00;31.00
49184;DHT22;35021;49.214;12.270;2023-04-08T04:21:25;20.00;31.00
49184;DHT22;35021;49.214;12.270;2023-04-08T04:23:53;20.00;31.10
49184;DHT22;35021;49.214;12.270;2023-04-08T04:26:20;19.90;31.20
49184;DHT22;35021;49.214;12.270;2023-04-08T04:28:47;19.90;31.40
49184;DHT22;35021;49.214;12.270;2023-04-08T04:31:22;19.80;31.50
49184;DHT22;35021;49.214;12.270;2023-04-08T04:33:49;19.80;31.70
49184;DHT22;35021;49.214;12.270;2023-04-08T04:36:16;19.80;31.80
49184;DHT22;35021;49.214;12.270;2023-04-08T04:38:43;19.80;31.80
49184;DHT22;35021;49.214;12.270;2023-04-08T04:41:10;19.80;31.90
49184;DHT22;35021;49.214;12.270;2023-04-08T04:43:37;19.90;32.10
49184;DHT22;35021;49.214;12.270;2023-04-08T04:46:04;19.90;32.20
49184;DHT22;35021;49.214;12.270;2023-04-08T04:48:34;19.90;32.30
49184;DHT22;35021;49.214;12.270;2023-04-08T04:51:01;19.90;32.50
49184;DHT22;35021;49.214;12.270;2023-04-08T04:53:29;19.90;32.60
49184;DHT22;35021;49.214;12.270;2023-04-08T04:55:57;19.90;32.90
49184;DHT22;35021;49.214;12.270;2023-04-08T04:58:24;19.90;33.00
49184;DHT22;35021;49.214;12.270;2023-04-08T05:00:51;20.00;33.20
49184;DHT22;35021;49.214;12.270;2023-04-08T05:03:17;20.00;33.30
49184;DHT22;35021;49.214;12.270;2023-04-08T05:05:50;20.00;33.50
49184;DHT22;35021;49.214;12.270;2023-04-08T05:08:17;19.90;33.50
49184;DHT22;35021;49.214;12.270;2023-04-08T05:10:44;19.90;33.70
49184;DHT22;35021;49.214;12.270;2023-04-08T05:13:11;19.90;33.80
49184;DHT22;35021;49.214;12.270;2023-04-08T05:15:38;19.90;33.90
49184;DHT22;35021;49.214;12.270;2023-04-08T05:18:05;19.90;34.00
49184;DHT22;35021;49.214;12.270;2023-04-08T05:20:32;19.80;33.90
49184;DHT22;35021;49.214;12.270;2023-04-08T05:22:59;19.80;33.90
49184;DHT22;35021;49.214;12.270;2023-04-08T05:25:25;19.80;33.90
49184;DHT22;35021;49.214;12.270;2023-04-08T05:27:52;19.90;34.00
49184;DHT22;35021;49.214;12.270;2023-04-08T05:30:19;19.90;34.00
49184;DHT22;35021;49.214;12.270;2023-04-08T05:32:46;19.90;34.00
49184;DHT22;35021;49.214;12.270;2023-04-08T05:35:13;20.00;34.00
49184;DHT22;35021;49.214;12.270;2023-04-08T05:37:40;20.00;33.90
49184;DHT22;35021;49.214;12.270;2023-04-08T05:40:07;20.00;33.90
49184;DHT22;35021;49.214;12.270;2023-04-08T05:42:34;20.10;33.90
49184;DHT22;35021;49.214;12.270;2023-04-08T05:45:01;20.10;33.80
49184;DHT22;35021;49.214;12.270;2023-04-08T05:47:28;20.20;33.80
49184;DHT22;35021;49.214;12.270;2023-04-08T05:49:55;20.20;33.80
49184;DHT22;35021;49.214;12.270;2023-04-08T05:52:22;20.20;33.70
49184;DHT22;35021;49.214;12.270;2023-04-08T05:54:49;20.20;33.70
49184;DHT22;35021;49.214;12.270;2023-04-08T05:57:16;20.20;33.60
49184;DHT22;35021;49.214;12.270;2023-04-08T05:59:43;20.20;33.70
49184;DHT22;35021;49.214;12.270;2023-04-08T06:02:10;20.20;33.70
49184;DHT22;35021;49.214;12.270;2023-04-08T06:04:37;20.20;33.70
49184;DHT22;35021;49.214;12.270;2023-04-08T06:07:04;20.20;33.70
49184;DHT22;35021;49.214;12.270;2023-04-08T06:09:34;20.20;33.80
49184;DHT22;35021;49.214;12.270;2023-04-08T06:12:02;20.10;33.90
49184;DHT22;35021;49.214;12.270;2023-04-08T06:14:29;20.00;33.90
49184;DHT22;35021;49.214;12.270;2023-04-08T06:16:56;20.00;34.10
49184;DHT22;35021;49.214;12.270;2023-04-08T06:19:24;20.00;34.10
49184;DHT22;35021;49.214;12.270;2023-04-08T06:21:50;19.90;34.20
49184;DHT22;35021;49.214;12.270;2023-04-08T06:24:17;19.90;34.20
49184;DHT22;35021;49.214;12.270;2023-04-08T06:26:44;20.00;34.20
49184;DHT22;35021;49.214;12.270;2023-04-08T06:29:11;20.00;34.20
49184;DHT22;35021;49.214;12.270;2023-04-08T06:31:37;20.00;34.20
49184;DHT22;35021;49.214;12.270;2023-04-08T06:34:04;20.10;34.10
49184;DHT22;35021;49.214;12.270;2023-04-08T06:36:31;20.10;34.10
49184;DHT22;35021;49.214;12.270;2023-04-08T06:38:59;20.10;34.10
49184;DHT22;35021;49.214;12.270;2023-04-08T06:41:26;20.20;34.10
49184;DHT22;35021;49.214;12.270;2023-04-08T06:43:52;20.20;34.10
49184;DHT22;35021;49.214;12.270;2023-04-08T06:46:19;20.20;34.10
49184;DHT22;35021;49.214;12.270;2023-04-08T06:48:47;20.10;34.10
49184;DHT22;35021;49.214;12.270;2023-04-08T06:51:14;20.10;34.20
49184;DHT22;35021;49.214;12.270;2023-04-08T06:53:41;19.90;34.30
49184;DHT22;35021;49.214;12.270;2023-04-08T06:56:08;19.90;34.40
49184;DHT22;35021;49.214;12.270;2023-04-08T06:58:35;19.80;34.50
49184;DHT22;35021;49.214;12.270;2023-04-08T07:01:01;19.80;34.70
49184;DHT22;35021;49.214;12.270;2023-04-08T07:03:29;19.70;34.70
49184;DHT22;35021;49.214;12.270;2023-04-08T07:05:56;19.70;34.90
49184;DHT22;35021;49.214;12.270;2023-04-08T07:08:23;19.70;34.90
49184;DHT22;35021;49.214;12.270;2023-04-08T07:10:51;19.70;35.00
49184;DHT22;35021;49.214;12.270;2023-04-08T07:13:18;19.80;35.10
49184;DHT22;35021;49.214;12.270;2023-04-08T07:15:45;19.80;35.00
49184;DHT22;35021;49.214;12.270;2023-04-08T07:18:12;19.80;35.00
49184;DHT22;35021;49.214;12.270;2023-04-08T07:20:39;19.80;35.00
49184;DHT22;35021;49.214;12.270;2023-04-08T07:23:07;19.80;34.90
49184;DHT22;35021;49.214;12.270;2023-04-08T07:25:35;19.90;35.00
49184;DHT22;35021;49.214;12.270;2023-04-08T07:28:02;19.90;35.00
49184;DHT22;35021;49.214;12.270;2023-04-08T07:30:29;19.90;35.00
49184;DHT22;35021;49.214;12.270;2023-04-08T07:32:56;19.90;35.00
49184;DHT22;35021;49.214;12.270;2023-04-08T07:35:27;19.90;35.00
49184;DHT22;35021;49.214;12.270;2023-04-08T07:37:55;19.80;35.00
49184;DHT22;35021;49.214;12.270;2023-04-08T07:40:23;19.80;35.10
49184;DHT22;35021;49.214;12.270;2023-04-08T07:42:50;19.80;35.10
49184;DHT22;35021;49.214;12.270;2023-04-08T07:45:17;19.80;35.20
49184;DHT22;35021;49.214;12.270;2023-04-08T07:47:44;19.70;35.30
49184;DHT22;35021;49.214;12.270;2023-04-08T07:50:12;19.60;35.40
49184;DHT22;35021;49.214;12.270;2023-04-08T07:52:39;19.60;35.60
49184;DHT22;35021;49.214;12.270;2023-04-08T07:55:06;19.60;35.70
49184;DHT22;35021;49.214;12.270;2023-04-08T07:57:33;19.60;35.80
49184;DHT22;35021;49.214;12.270;2023-04-08T08:00:00;19.60;35.80
49184;DHT22;35021;49.214;12.270;2023-04-08T08:02:27;19.60;35.80
49184;DHT22;35021;49.214;12.270;2023-04-08T08:04:55;19.60;35.70
49184;DHT22;35021;49.214;12.270;2023-04-08T08:07:22;19.60;35.70
49184;DHT22;35021;49.214;12.270;2023-04-08T08:09:49;19.70;35.70
49184;DHT22;35021;49.214;12.270;2023-04-08T08:12:16;19.70;35.70
49184;DHT22;35021;49.214;12.270;2023-04-08T08:14:43;19.80;35.70
49184;DHT22;35021;49.214;12.270;2023-04-08T08:17:10;19.80;35.70
49184;DHT22;35021;49.214;12.270;2023-04-08T08:19:38;19.80;35.60
49184;DHT22;35021;49.214;12.270;2023-04-08T08:22:05;19.80;35.50
49184;DHT22;35021;49.214;12.270;2023-04-08T08:24:32;19.90;35.60
49184;DHT22;35021;49.214;12.270;2023-04-08T08:26:59;19.80;35.50
49184;DHT22;35021;49.214;12.270;2023-04-08T08:29:27;19.80;35.70
49184;DHT22;35021;49.214;12.270;2023-04-08T08:31:54;19.80;35.80
49184;DHT22;35021;49.214;12.270;2023-04-08T08:34:21;19.70;35.80
49184;DHT22;35021;49.214;12.270;2023-04-08T08:36:47;19.70;35.90
49184;DHT22;35021;49.214;12.270;2023-04-08T08:39:14;19.60;35.90
49184;DHT22;35021;49.214;12.270;2023-04-08T08:41:41;19.60;36.00
49184;DHT22;35021;49.214;12.270;2023-04-08T08:44:09;19.60;36.10
49184;DHT22;35021;49.214;12.270;2023-04-08T08:46:36;19.60;36.10
49184;DHT22;35021;49.214;12.270;2023-04-08T08:49:03;19.70;36.20
49184;DHT22;35021;49.214;12.270;2023-04-08T08:51:30;19.70;36.20
49184;DHT22;35021;49.214;12.270;2023-04-08T08:54:01;19.70;36.10
49184;DHT22;35021;49.214;12.270;2023-04-08T08:56:28;19.80;36.20
49184;DHT22;35021;49.214;12.270;2023-04-08T08:58:56;19.80;36.10
49184;DHT22;35021;49.214;12.270;2023-04-08T09:04:27;19.90;36.00
49184;DHT22;35021;49.214;12.270;2023-04-08T09:07:10;19.90;36.00
49184;DHT22;35021;49.214;12.270;2023-04-08T09:09:49;20.00;36.10
49184;DHT22;35021;49.214;12.270;2023-04-08T09:12:16;20.10;36.00
49184;DHT22;35021;49.214;12.270;2023-04-08T09:14:44;20.10;35.90
49184;DHT22;35021;49.214;12.270;2023-04-08T09:17:10;20.20;36.00
49184;DHT22;35021;49.214;12.270;2023-04-08T09:19:38;20.20;35.90
49184;DHT22;35021;49.214;12.270;2023-04-08T09:22:06;20.20;35.80
49184;DHT22;35021;49.214;12.270;2023-04-08T09:24:34;20.20;35.80
49184;DHT22;35021;49.214;12.270;2023-04-08T09:27:04;20.30;35.80
49184;DHT22;35021;49.214;12.270;2023-04-08T09:29:32;20.30;35.80
49184;DHT22;35021;49.214;12.270;2023-04-08T09:32:04;20.30;35.80
49184;DHT22;35021;49.214;12.270;2023-04-08T09:34:34;20.30;35.90
49184;DHT22;35021;49.214;12.270;2023-04-08T09:37:01;20.30;35.90
49184;DHT22;35021;49.214;12.270;2023-04-08T09:39:28;20.30;35.90
49184;DHT22;35021;49.214;12.270;2023-04-08T09:41:57;20.30;35.80
49184;DHT22;35021;49.214;12.270;2023-04-08T09:44:28;20.40;35.80
49184;DHT22;35021;49.214;12.270;2023-04-08T09:47:07;20.40;35.90
49184;DHT22;35021;49.214;12.270;2023-04-08T09:49:49;20.40;35.90
49184;DHT22;35021;49.214;12.270;2023-04-08T09:52:28;20.40;35.80
49184;DHT22;35021;49.214;12.270;2023-04-08T09:55:03;20.50;35.90
49184;DHT22;35021;49.214;12.270;2023-04-08T09:57:51;20.50;35.80
49184;DHT22;35021;49.214;12.270;2023-04-08T10:00:23;20.50;35.70
49184;DHT22;35021;49.214;12.270;2023-04-08T10:03:44;20.60;35.80
49184;DHT22;35021;49.214;12.270;2023-04-08T10:06:16;20.60;35.70
49184;DHT22;35021;49.214;12.270;2023-04-08T10:08:45;20.60;35.60
49184;DHT22;35021;49.214;12.270;2023-04-08T10:11:16;20.70;35.60
49184;DHT22;35021;49.214;12.270;2023-04-08T10:13:43;20.70;35.50
49184;DHT22;35021;49.214;12.270;2023-04-08T10:16:20;20.70;35.50
49184;DHT22;35021;49.214;12.270;2023-04-08T10:18:48;20.80;35.50
49184;DHT22;35021;49.214;12.270;2023-04-08T10:21:33;20.80;35.50
49184;DHT22;35021;49.214;12.270;2023-04-08T10:24:02;20.80;35.40
49184;DHT22;35021;49.214;12.270;2023-04-08T10:26:37;20.80;35.40
49184;DHT22;35021;49.214;12.270;2023-04-08T10:31:44;20.90;35.40
49184;DHT22;35021;49.214;12.270;2023-04-08T10:34:19;20.90;35.30
49184;DHT22;35021;49.214;12.270;2023-04-08T10:36:46;21.00;35.30
49184;DHT22;35021;49.214;12.270;2023-04-08T10:39:14;21.00;35.20
49184;DHT22;35021;49.214;12.270;2023-04-08T10:41:43;21.00;35.20
49184;DHT22;35021;49.214;12.270;2023-04-08T10:44:28;21.10;35.20
49184;DHT22;35021;49.214;12.270;2023-04-08T10:46:55;21.10;35.20
49184;DHT22;35021;49.214;12.270;2023-04-08T10:49:22;21.10;35.20
49184;DHT22;35021;49.214;12.270;2023-04-08T10:51:57;21.10;35.30
49184;DHT22;35021;49.214;12.270;2023-04-08T10:54:25;21.00;35.20
49184;DHT22;35021;49.214;12.270;2023-04-08T10:56:52;21.00;35.20
49184;DHT22;35021;49.214;12.270;2023-04-08T10:59:30;21.00;35.30
49184;DHT22;35021;49.214;12.270;2023-04-08T11:01:58;21.00;35.40
49184;DHT22;35021;49.214;12.270;2023-04-08T11:07:04;20.80;35.40
49184;DHT22;35021;49.214;12.270;2023-04-08T11:09:33;20.80;35.50
49184;DHT22;35021;49.214;12.270;2023-04-08T11:12:00;20.70;35.60
49184;DHT22;35021;49.214;12.270;2023-04-08T11:14:27;20.70;35.80
49184;DHT22;35021;49.214;12.270;2023-04-08T11:16:54;20.70;35.80
49184;DHT22;35021;49.214;12.270;2023-04-08T11:19:21;20.70;35.80
49184;DHT22;35021;49.214;12.270;2023-04-08T11:21:49;20.70;35.80
49184;DHT22;35021;49.214;12.270;2023-04-08T11:24:17;20.70;35.80
49184;DHT22;35021;49.214;12.270;2023-04-08T11:26:44;20.70;36.40
49184;DHT22;35021;49.214;12.270;2023-04-08T11:29:11;20.70;35.70
49184;DHT22;35021;49.214;12.270;2023-04-08T11:31:42;20.80;35.70
49184;DHT22;35021;49.214;12.270;2023-04-08T11:34:10;20.80;35.70
49184;DHT22;35021;49.214;12.270;2023-04-08T11:36:39;20.80;35.60
49184;DHT22;35021;49.214;12.270;2023-04-08T11:39:08;20.80;35.60
49184;DHT22;35021;49.214;12.270;2023-04-08T11:41:36;20.80;35.60
49184;DHT22;35021;49.214;12.270;2023-04-08T11:44:05;20.90;35.50
49184;DHT22;35021;49.214;12.270;2023-04-08T11:46:35;20.90;35.60
49184;DHT22;35021;49.214;12.270;2023-04-08T11:49:06;20.90;35.70
49184;DHT22;35021;49.214;12.270;2023-04-08T11:51:37;20.90;35.70
49184;DHT22;35021;49.214;12.270;2023-04-08T11:54:26;20.90;35.80
49184;DHT22;35021;49.214;12.270;2023-04-08T11:56:54;20.90;35.80
49184;DHT22;35021;49.214;12.270;2023-04-08T11:59:21;20.90;35.80
49184;DHT22;35021;49.214;12.270;2023-04-08T12:01:48;20.90;35.80
49184;DHT22;35021;49.214;12.270;2023-04-08T12:04:15;20.90;35.80
49184;DHT22;35021;49.214;12.270;2023-04-08T12:06:42;20.90;35.90
49184;DHT22;35021;49.214;12.270;2023-04-08T12:09:12;20.90;35.90
49184;DHT22;35021;49.214;12.270;2023-04-08T12:11:39;20.90;35.90
49184;DHT22;35021;49.214;12.270;2023-04-08T12:14:06;21.00;35.80
49184;DHT22;35021;49.214;12.270;2023-04-08T12:16:33;21.00;35.80
49184;DHT22;35021;49.214;12.270;2023-04-08T12:19:00;21.00;35.80
49184;DHT22;35021;49.214;12.270;2023-04-08T12:21:27;21.00;35.70
49184;DHT22;35021;49.214;12.270;2023-04-08T12:23:54;21.00;35.70
49184;DHT22;35021;49.214;12.270;2023-04-08T12:26:21;21.00;35.60
49184;DHT22;35021;49.214;12.270;2023-04-08T12:28:47;21.00;35.60
49184;DHT22;35021;49.214;12.270;2023-04-08T12:31:14;20.90;35.70
49184;DHT22;35021;49.214;12.270;2023-04-08T12:33:41;20.90;35.80
49184;DHT22;35021;49.214;12.270;2023-04-08T12:36:08;20.80;35.80
49184;DHT22;35021;49.214;12.270;2023-04-08T12:38:37;20.80;36.00
49184;DHT22;35021;49.214;12.270;2023-04-08T12:41:04;20.70;36.10
49184;DHT22;35021;49.214;12.270;2023-04-08T12:43:32;20.60;36.20
49184;DHT22;35021;49.214;12.270;2023-04-08T12:46:00;20.70;36.30
49184;DHT22;35021;49.214;12.270;2023-04-08T12:48:27;20.60;36.30
49184;DHT22;35021;49.214;12.270;2023-04-08T12:50:54;20.70;36.40
49184;DHT22;35021;49.214;12.270;2023-04-08T12:53:21;20.70;36.30
49184;DHT22;35021;49.214;12.270;2023-04-08T12:55:48;20.70;36.20
49184;DHT22;35021;49.214;12.270;2023-04-08T12:58:16;20.70;36.20
49184;DHT22;35021;49.214;12.270;2023-04-08T13:00:45;20.70;36.20
49184;DHT22;35021;49.214;12.270;2023-04-08T13:03:12;20.70;36.00
49184;DHT22;35021;49.214;12.270;2023-04-08T13:05:43;20.80;35.90
49184;DHT22;35021;49.214;12.270;2023-04-08T13:08:10;20.80;35.80
49184;DHT22;35021;49.214;12.270;2023-04-08T13:10:38;20.80;35.80
49184;DHT22;35021;49.214;12.270;2023-04-08T13:13:05;20.80;35.90
49184;DHT22;35021;49.214;12.270;2023-04-08T13:15:33;20.80;36.00
49184;DHT22;35021;49.214;12.270;2023-04-08T13:17:59;20.90;36.00
49184;DHT22;35021;49.214;12.270;2023-04-08T13:20:27;20.90;35.90
49184;DHT22;35021;49.214;12.270;2023-04-08T13:22:53;20.80;36.50
49184;DHT22;35021;49.214;12.270;2023-04-08T13:25:20;20.80;35.80
49184;DHT22;35021;49.214;12.270;2023-04-08T13:27:47;20.80;35.80
49184;DHT22;35021;49.214;12.270;2023-04-08T13:30:14;20.80;35.90
49184;DHT22;35021;49.214;12.270;2023-04-08T13:32:41;20.80;35.90
49184;DHT22;35021;49.214;12.270;2023-04-08T13:35:08;20.80;35.90
49184;DHT22;35021;49.214;12.270;2023-04-08T13:37:35;20.70;35.90
49184;DHT22;35021;49.214;12.270;2023-04-08T13:40:02;20.70;36.10
49184;DHT22;35021;49.214;12.270;2023-04-08T13:42:29;20.60;36.20
49184;DHT22;35021;49.214;12.270;2023-04-08T13:44:59;20.60;36.20
49184;DHT22;35021;49.214;12.270;2023-04-08T13:47:27;20.60;36.10
49184;DHT22;35021;49.214;12.270;2023-04-08T13:49:54;20.60;36.00
49184;DHT22;35021;49.214;12.270;2023-04-08T13:52:21;20.60;35.90
49184;DHT22;35021;49.214;12.270;2023-04-08T13:54:48;20.70;35.80
49184;DHT22;35021;49.214;12.270;2023-04-08T13:57:14;20.70;35.70
49184;DHT22;35021;49.214;12.270;2023-04-08T13:59:42;20.80;35.70
49184;DHT22;35021;49.214;12.270;2023-04-08T14:02:10;20.80;35.80
49184;DHT22;35021;49.214;12.270;2023-04-08T14:04:38;20.70;35.80
49184;DHT22;35021;49.214;12.270;2023-04-08T14:07:05;20.70;35.90
49184;DHT22;35021;49.214;12.270;2023-04-08T14:09:32;20.80;36.00
49184;DHT22;35021;49.214;12.270;2023-04-08T14:11:59;20.80;35.80
49184;DHT22;35021;49.214;12.270;2023-04-08T14:14:26;20.90;35.90
49184;DHT22;35021;49.214;12.270;2023-04-08T14:16:52;21.00;35.70
49184;DHT22;35021;49.214;12.270;2023-04-08T14:19:19;21.00;35.70
49184;DHT22;35021;49.214;12.270;2023-04-08T14:21:46;21.10;35.70
49184;DHT22;35021;49.214;12.270;2023-04-08T14:24:14;21.10;36.30
49184;DHT22;35021;49.214;12.270;2023-04-08T14:26:41;21.10;35.50
49184;DHT22;35021;49.214;12.270;2023-04-08T14:29:08;21.20;35.50
49184;DHT22;35021;49.214;12.270;2023-04-08T14:31:35;21.20;35.40
49184;DHT22;35021;49.214;12.270;2023-04-08T14:34:02;21.20;35.30
49184;DHT22;35021;49.214;12.270;2023-04-08T14:36:29;21.20;35.30
49184;DHT22;35021;49.214;12.270;2023-04-08T14:38:57;21.20;35.30
49184;DHT22;35021;49.214;12.270;2023-04-08T14:41:24;21.10;35.20
49184;DHT22;35021;49.214;12.270;2023-04-08T14:43:53;21.10;35.30
49184;DHT22;35021;49.214;12.270;2023-04-08T14:46:20;21.00;35.30
49184;DHT22;35021;49.214;12.270;2023-04-08T14:48:48;20.90;35.40
49184;DHT22;35021;49.214;12.270;2023-04-08T14:51:15;20.90;35.40
49184;DHT22;35021;49.214;12.270;2023-04-08T14:53:42;20.90;35.40
49184;DHT22;35021;49.214;12.270;2023-04-08T14:56:09;20.90;35.50
49184;DHT22;35021;49.214;12.270;2023-04-08T14:58:35;20.90;35.50
49184;DHT22;35021;49.214;12.270;2023-04-08T15:01:03;20.90;35.40
49184;DHT22;35021;49.214;12.270;2023-04-08T15:03:30;20.90;35.40
49184;DHT22;35021;49.214;12.270;2023-04-08T15:05:57;21.00;35.50
49184;DHT22;35021;49.214;12.270;2023-04-08T15:08:24;21.00;35.40
49184;DHT22;35021;49.214;12.270;2023-04-08T15:10:51;20.90;35.40
49184;DHT22;35021;49.214;12.270;2023-04-08T15:13:18;20.90;35.20
49184;DHT22;35021;49.214;12.270;2023-04-08T15:15:46;20.90;35.20
49184;DHT22;35021;49.214;12.270;2023-04-08T15:18:13;20.90;35.20
49184;DHT22;35021;49.214;12.270;2023-04-08T15:20:40;20.80;35.10
49184;DHT22;35021;49.214;12.270;2023-04-08T15:23:08;20.80;35.20
49184;DHT22;35021;49.214;12.270;2023-04-08T15:25:37;20.80;35.20
49184;DHT22;35021;49.214;12.270;2023-04-08T15:28:04;20.70;35.30
49184;DHT22;35021;49.214;12.270;2023-04-08T15:30:31;20.70;35.20